Time;durP1;ratioP1;P1;durP2;ratioP2;P2;SDS_P1;SDS_P2;PMS_P1;PMS_P2;Temp;Humidity;BMP_temperature;BMP_pressure;BME280_temperature;BME280_humidity;BME280_pressure;Samples;Min_cycle;Max_cycle;Signal;HPM_P1;HPM_P2
2022/08/03 00:01:58;;;;;;;5.17;2.33;;;22.70;91.60;;;;;;5011393;28;20030;-73
2022/08/03 00:04:24;;;;;;;8.10;2.10;;;22.70;92.00;;;;;;5011966;28;20038;-74
2022/08/03 00:06:49;;;;;;;5.85;2.17;;;22.60;92.40;;;;;;5011807;28;20037;-74
2022/08/03 00:09:15;;;;;;;3.75;2.40;;;22.60;92.00;;;;;;5011745;28;20029;-74
2022/08/03 00:11:41;;;;;;;4.85;2.22;;;22.50;92.10;;;;;;5010791;28;20036;-75
2022/08/03 00:14:07;;;;;;;6.00;2.10;;;22.50;92.40;;;;;;5011645;28;20245;-73
2022/08/03 00:16:33;;;;;;;5.80;2.60;;;22.50;92.30;;;;;;5012160;28;20022;-74
2022/08/03 00:18:59;;;;;;;2.97;2.13;;;22.40;92.70;;;;;;5010371;28;20045;-74
2022/08/03 00:21:25;;;;;;;5.93;2.72;;;22.40;92.80;;;;;;5011705;28;20419;-74
2022/08/03 00:23:50;;;;;;;4.03;2.72;;;22.40;92.80;;;;;;5011526;28;20056;-74
2022/08/03 00:26:16;;;;;;;4.75;2.72;;;22.40;92.70;;;;;;5011526;28;20030;-73
2022/08/03 00:28:42;;;;;;;6.72;2.80;;;22.30;92.70;;;;;;5011835;28;20075;-73
2022/08/03 00:31:17;;;;;;;6.55;2.72;;;22.30;92.70;;;;;;5011233;28;20460;-74
2022/08/03 00:33:42;;;;;;;4.13;2.33;;;22.30;92.80;;;;;;5011371;28;20030;-75
2022/08/03 00:36:17;;;;;;;5.38;2.63;;;22.30;93.00;;;;;;5011202;28;20034;-74
2022/08/03 00:38:42;;;;;;;4.55;2.35;;;22.20;92.90;;;;;;5011218;28;20448;-74
2022/08/03 00:41:17;;;;;;;2.78;2.30;;;22.20;93.00;;;;;;5011250;28;20053;-74
2022/08/03 00:43:43;;;;;;;4.68;2.70;;;22.20;92.80;;;;;;5011704;28;20030;-74
2022/08/03 00:46:15;;;;;;;6.97;2.22;;;22.20;92.80;;;;;;5011274;28;20050;-74
2022/08/03 00:48:41;;;;;;;7.07;2.95;;;22.20;92.90;;;;;;5011344;28;20030;-74
2022/08/03 00:51:17;;;;;;;3.67;2.35;;;22.20;93.10;;;;;;5011013;28;20514;-74
2022/08/03 00:53:42;;;;;;;4.85;2.70;;;22.20;92.70;;;;;;5009980;28;20026;-74
2022/08/03 00:56:17;;;;;;;6.38;2.80;;;22.20;92.80;;;;;;5010861;28;20139;-74
2022/08/03 00:58:44;;;;;;;5.82;2.28;;;22.20;92.80;;;;;;5011509;28;20018;-74
2022/08/03 01:01:19;;;;;;;4.22;2.47;;;22.20;93.00;;;;;;5011240;28;20050;-73
2022/08/03 01:03:45;;;;;;;5.03;2.65;;;22.10;93.00;;;;;;5010940;28;20026;-74
2022/08/03 01:06:28;;;;;;;7.03;2.72;;;22.10;93.00;;;;;;5011182;28;20040;-73
2022/08/03 01:09:08;;;;;;;5.63;2.70;;;22.10;93.00;;;;;;5011279;28;20116;-74
2022/08/03 01:11:49;;;;;;;9.50;2.47;;;22.10;93.00;;;;;;5010269;28;20049;-73
2022/08/03 01:14:40;;;;;;;5.00;2.40;;;22.10;93.30;;;;;;5010763;28;20356;-74
2022/08/03 01:17:16;;;;;;;7.43;2.67;;;22.10;93.30;;;;;;5011157;28;20116;-73
2022/08/03 01:20:11;;;;;;;3.60;2.45;;;22.00;93.50;;;;;;5011249;28;20033;-74
2022/08/03 01:22:50;;;;;;;5.78;2.80;;;22.00;93.40;;;;;;5014521;28;20045;-74
2022/08/03 01:25:27;;;;;;;5.95;2.60;;;22.00;93.40;;;;;;5010868;28;20065;-74
2022/08/03 01:28:11;;;;;;;4.03;2.40;;;22.00;93.20;;;;;;5010786;28;20026;-74
2022/08/03 01:30:39;;;;;;;4.53;2.80;;;22.00;93.40;;;;;;5010794;28;20033;-74
2022/08/03 01:33:11;;;;;;;6.18;3.35;;;22.00;93.50;;;;;;5010548;28;20034;-74
2022/08/03 01:36:11;;;;;;;8.82;2.92;;;21.90;93.40;;;;;;5015363;28;20026;-73
2022/08/03 01:38:42;;;;;;;3.08;2.45;;;21.90;93.70;;;;;;5030208;28;20026;-74
2022/08/03 01:41:16;;;;;;;3.85;2.40;;;21.90;93.80;;;;;;5029176;28;20423;-72
2022/08/03 01:43:47;;;;;;;6.57;2.53;;;21.90;93.80;;;;;;5032863;28;20017;-74
2022/08/03 01:46:14;;;;;;;5.20;2.70;;;21.80;93.90;;;;;;5034471;28;20029;-74
2022/08/03 01:48:42;;;;;;;5.75;2.40;;;21.80;93.80;;;;;;5033137;28;20025;-74
2022/08/03 01:51:17;;;;;;;4.50;2.70;;;21.80;93.80;;;;;;5033134;28;20040;-74
2022/08/03 01:53:43;;;;;;;4.93;3.17;;;21.80;93.80;;;;;;5034050;28;20022;-75
2022/08/03 01:56:18;;;;;;;3.95;2.78;;;21.80;93.90;;;;;;5033745;28;20073;-74
2022/08/03 01:58:45;;;;;;;8.52;2.90;;;21.70;93.90;;;;;;5034511;28;20363;-74
2022/08/03 02:01:21;;;;;;;4.70;2.47;;;21.70;94.10;;;;;;5034210;28;20041;-74
2022/08/03 02:03:49;;;;;;;2.42;2.22;;;21.70;94.00;;;;;;5033843;28;20037;-75
2022/08/03 02:06:21;;;;;;;5.07;2.75;;;21.70;94.10;;;;;;5034111;28;20044;-74
2022/08/03 02:08:48;;;;;;;2.70;2.40;;;21.70;94.10;;;;;;5033802;28;20122;-75
2022/08/03 02:11:17;;;;;;;5.03;2.70;;;21.60;94.00;;;;;;5033966;28;20473;-73
2022/08/03 02:13:44;;;;;;;4.10;2.83;;;21.60;94.00;;;;;;5034590;28;20124;-74
2022/08/03 02:16:23;;;;;;;4.32;2.80;;;21.60;94.00;;;;;;5034147;28;20036;-73
2022/08/03 02:18:51;;;;;;;8.02;2.40;;;21.60;94.00;;;;;;5033595;28;20045;-73
2022/08/03 02:21:26;;;;;;;;;;;21.60;93.80;;;;;;5034161;28;20030;-73
2022/08/03 02:23:52;;;;;;;3.83;2.28;;;21.60;94.10;;;;;;5033448;28;19983;-72
2022/08/03 02:26:28;;;;;;;7.30;2.83;;;21.60;94.10;;;;;;5033599;28;20498;-74
2022/08/03 02:28:56;;;;;;;4.95;2.58;;;21.50;94.20;;;;;;5034100;28;20494;-74
2022/08/03 02:31:26;;;;;;;3.97;2.60;;;21.50;94.00;;;;;;5033563;28;20038;-73
2022/08/03 02:33:56;;;;;;;3.45;2.58;;;21.50;93.90;;;;;;5033353;28;20467;-73
2022/08/03 02:36:26;;;;;;;4.35;3.38;;;21.50;94.10;;;;;;5033473;28;20044;-73
2022/08/03 02:38:55;;;;;;;3.20;2.58;;;21.50;93.90;;;;;;5032129;28;20065;-75
2022/08/03 02:41:31;;;;;;;3.35;2.45;;;21.40;93.90;;;;;;5033282;28;20033;-73
2022/08/03 02:44:01;;;;;;;6.72;2.40;;;21.40;94.20;;;;;;5033766;28;20029;-75
2022/08/03 02:46:31;;;;;;;3.88;2.63;;;21.40;94.10;;;;;;5033565;28;20034;-74
2022/08/03 02:49:00;;;;;;;8.75;2.65;;;21.40;94.10;;;;;;5032849;28;20075;-73
2022/08/03 02:51:29;;;;;;;5.82;2.65;;;21.40;94.20;;;;;;5032086;28;20460;-75
2022/08/03 02:53:59;;;;;;;4.57;2.85;;;21.30;94.20;;;;;;5033075;28;20109;-75
2022/08/03 02:56:26;;;;;;;3.28;2.28;;;21.30;94.10;;;;;;5032964;28;20451;-74
2022/08/03 02:58:53;;;;;;;3.53;2.70;;;21.40;94.20;;;;;;5033826;28;20030;-74
2022/08/03 03:01:21;;;;;;;3.50;2.40;;;21.30;94.20;;;;;;5033602;28;20039;-74
2022/08/03 03:03:50;;;;;;;3.85;2.90;;;21.30;94.30;;;;;;5033528;28;20201;-74
2022/08/03 03:06:26;;;;;;;8.63;3.35;;;21.20;94.30;;;;;;5033879;28;20034;-74
2022/08/03 03:08:53;;;;;;;3.78;2.90;;;21.20;94.40;;;;;;5034576;28;20360;-74
2022/08/03 03:11:21;;;;;;;3.75;2.53;;;21.20;94.30;;;;;;5034767;28;20029;-74
2022/08/03 03:13:48;;;;;;;6.95;2.95;;;21.20;94.40;;;;;;5033412;28;20435;-74
2022/08/03 03:16:25;;;;;;;4.13;2.83;;;21.20;94.40;;;;;;5032709;28;20164;-74
2022/08/03 03:18:53;;;;;;;3.80;2.30;;;21.20;94.30;;;;;;5032391;28;20034;-75
2022/08/03 03:21:44;;;;;;;;;;;21.10;94.30;;;;;;5031972;28;20472;-75
2022/08/03 03:24:10;;;;;;;4.07;2.25;;;21.20;94.40;;;;;;5032491;28;19925;-74
2022/08/03 03:26:37;;;;;;;2.47;2.28;;;21.10;94.30;;;;;;5032460;28;20029;-75
2022/08/03 03:29:03;;;;;;;2.83;2.33;;;21.10;94.20;;;;;;5032389;28;20571;-75
2022/08/03 03:31:29;;;;;;;3.72;2.40;;;21.10;94.30;;;;;;5032988;28;20267;-76
2022/08/03 03:33:57;;;;;;;4.20;2.55;;;21.10;94.30;;;;;;5031317;28;20037;-75
2022/08/03 03:36:29;;;;;;;4.00;2.38;;;21.10;94.60;;;;;;5032473;28;20033;-76
2022/08/03 03:38:55;;;;;;;6.18;2.85;;;21.10;94.30;;;;;;5032190;28;20133;-77
2022/08/03 03:41:24;;;;;;;7.32;2.53;;;21.00;94.50;;;;;;5032041;28;20375;-75
2022/08/03 03:43:50;;;;;;;5.10;2.65;;;21.00;94.40;;;;;;5032651;28;20032;-73
2022/08/03 03:46:22;;;;;;;2.95;2.20;;;21.00;94.50;;;;;;5031124;28;20030;-74
2022/08/03 03:48:48;;;;;;;5.32;2.83;;;21.00;94.50;;;;;;5032208;28;20026;-75
2022/08/03 03:51:26;;;;;;;4.18;2.47;;;21.00;94.60;;;;;;5032109;28;20034;-74
2022/08/03 03:53:59;;;;;;;3.55;2.42;;;21.00;94.60;;;;;;5031119;28;20037;-73
2022/08/03 03:56:26;;;;;;;5.57;2.63;;;21.00;94.50;;;;;;5032055;28;20406;-74
2022/08/03 03:58:52;;;;;;;6.95;2.50;;;21.00;94.40;;;;;;5033107;28;20064;-74
2022/08/03 04:01:21;;;;;;;7.03;2.13;;;21.00;94.50;;;;;;5032683;28;20065;-75
2022/08/03 04:03:47;;;;;;;5.85;2.45;;;20.90;94.50;;;;;;5032378;28;20138;-75
2022/08/03 04:11:52;;;;;;;4.50;2.55;;;20.90;94.40;;;;;;5031837;28;20036;-75
2022/08/03 04:14:36;;;;;;;4.93;2.65;;;20.90;94.50;;;;;;5031528;28;20112;-75
2022/08/03 04:17:07;;;;;;;6.85;3.25;;;20.90;94.50;;;;;;5031374;28;20120;-76
2022/08/03 04:19:51;;;;;;;7.25;2.95;;;20.90;94.50;;;;;;5031707;28;20025;-75
2022/08/03 04:22:21;;;;;;;3.65;2.72;;;20.90;94.60;;;;;;5031287;28;20087;-76
2022/08/03 04:24:59;;;;;;;5.47;2.28;;;20.90;94.40;;;;;;5031407;28;20025;-76
2022/08/03 04:27:26;;;;;;;;;;;20.90;94.50;;;;;;5032042;28;20034;-75
2022/08/03 04:29:55;;;;;;;3.03;2.30;;;21.00;94.60;;;;;;5031275;28;19987;-74
2022/08/03 04:32:24;;;;;;;6.10;2.67;;;20.90;94.30;;;;;;5031235;28;20469;-74
2022/08/03 04:34:50;;;;;;;3.30;2.55;;;20.90;94.50;;;;;;5031753;28;20029;-74
2022/08/03 04:37:46;;;;;;;2.88;2.30;;;20.90;94.50;;;;;;5031694;28;20084;-74
2022/08/03 04:40:34;;;;;;;3.10;2.55;;;21.00;94.50;;;;;;5029833;28;20033;-74
2022/08/03 04:43:00;;;;;;;4.28;2.70;;;21.00;94.50;;;;;;5029947;28;20060;-75
2022/08/03 04:45:29;;;;;;;3.42;2.30;;;21.00;94.50;;;;;;5030086;28;20029;-75
2022/08/03 04:47:56;;;;;;;6.18;2.38;;;21.00;94.60;;;;;;5031040;28;20029;-76
2022/08/03 04:50:22;;;;;;;4.88;2.30;;;21.00;94.50;;;;;;5030935;28;20052;-75
2022/08/03 04:52:48;;;;;;;2.28;2.08;;;21.00;94.60;;;;;;5031153;28;20124;-74
2022/08/03 04:55:30;;;;;;;2.90;2.50;;;21.00;94.60;;;;;;5030533;28;20133;-74
2022/08/03 04:58:00;;;;;;;7.15;2.17;;;21.00;94.50;;;;;;5030819;28;20049;-75
2022/08/03 05:00:26;;;;;;;2.95;2.13;;;21.10;94.60;;;;;;5030626;28;20057;-75
2022/08/03 05:02:53;;;;;;;2.58;2.38;;;21.10;94.50;;;;;;5030666;28;20040;-76
2022/08/03 05:05:19;;;;;;;5.70;2.30;;;21.10;94.70;;;;;;5030847;28;20036;-75
2022/08/03 05:07:45;;;;;;;3.78;2.10;;;21.20;94.50;;;;;;5031164;28;20428;-76
2022/08/03 05:10:11;;;;;;;4.10;2.28;;;21.20;94.50;;;;;;5030778;28;20026;-75
2022/08/03 05:12:38;;;;;;;4.00;2.25;;;21.20;94.50;;;;;;5030479;28;20029;-75
2022/08/03 05:15:04;;;;;;;7.70;3.00;;;21.20;94.60;;;;;;5029466;28;20034;-76
2022/08/03 05:17:30;;;;;;;2.90;2.25;;;21.20;94.30;;;;;;5029886;28;20102;-76
2022/08/03 05:19:56;;;;;;;4.43;2.50;;;21.30;94.70;;;;;;5030976;28;20383;-77
2022/08/03 05:22:22;;;;;;;6.45;2.35;;;21.30;94.50;;;;;;5031204;28;20033;-77
2022/08/03 05:24:48;;;;;;;6.40;3.17;;;21.30;94.60;;;;;;5031127;28;20032;-79
2022/08/03 05:27:18;;;;;;;2.92;2.38;;;21.30;94.50;;;;;;5030955;28;20031;-78
2022/08/03 05:29:48;;;;;;;5.43;2.15;;;21.40;94.60;;;;;;5030813;28;20440;-76
2022/08/03 05:32:15;;;;;;;2.30;2.03;;;21.40;94.60;;;;;;5030609;28;20037;-74
2022/08/03 05:34:41;;;;;;;111.10;62.38;;;21.50;94.50;;;;;;5030616;28;20025;-73
2022/08/03 05:37:06;;;;;;;89.60;49.75;;;21.50;94.40;;;;;;5030660;28;20037;-74
2022/08/03 05:39:33;;;;;;;13.27;7.53;;;21.60;94.60;;;;;;5030532;28;20034;-73
2022/08/03 05:41:58;;;;;;;2.88;2.40;;;21.70;94.50;;;;;;5030415;28;20030;-76
2022/08/03 05:44:24;;;;;;;3.90;2.35;;;21.70;94.50;;;;;;5030868;28;20030;-74
2022/08/03 05:46:51;;;;;;;3.95;2.50;;;21.80;94.50;;;;;;5030959;28;20032;-75
2022/08/03 05:49:17;;;;;;;6.65;4.72;;;21.90;94.40;;;;;;5030333;28;20396;-77
2022/08/03 05:51:42;;;;;;;5.70;4.03;;;21.90;94.30;;;;;;5030691;28;20037;-75
2022/08/03 05:54:08;;;;;;;8.35;4.85;;;22.00;94.40;;;;;;5028788;28;20388;-75
2022/08/03 05:56:34;;;;;;;3.65;2.50;;;22.00;94.10;;;;;;5029965;28;20041;-73
2022/08/03 05:59:00;;;;;;;119.30;64.95;;;22.10;94.20;;;;;;5030824;28;20026;-75
2022/08/03 06:01:25;;;;;;;50.10;26.88;;;22.10;94.20;;;;;;5030253;28;20431;-76
2022/08/03 06:03:51;;;;;;;69.90;39.97;;;22.10;94.20;;;;;;5030226;28;20036;-75
2022/08/03 06:06:20;;;;;;;77.25;46.63;;;22.20;94.20;;;;;;5030029;28;20322;-77
2022/08/03 06:08:47;;;;;;;69.03;32.90;;;22.30;94.10;;;;;;5029313;28;20360;-74
2022/08/03 06:11:29;;;;;;;141.75;82.90;;;22.40;94.20;;;;;;5029955;28;20043;-75
2022/08/03 06:13:55;;;;;;;234.18;148.05;;;22.40;94.00;;;;;;5029545;28;20029;-73
2022/08/03 06:16:36;;;;;;;18.40;12.45;;;22.40;94.00;;;;;;5029251;28;20111;-73
2022/08/03 06:19:02;;;;;;;63.72;38.13;;;22.50;94.10;;;;;;5029197;28;20041;-76
2022/08/03 06:21:27;;;;;;;110.78;64.47;;;22.50;93.90;;;;;;5028873;28;20030;-76
2022/08/03 06:23:53;;;;;;;32.42;16.65;;;22.60;93.90;;;;;;5029038;28;20037;-74
2022/08/03 06:26:24;;;;;;;3.65;2.67;;;22.60;93.90;;;;;;5029898;28;20465;-78
2022/08/03 06:28:49;;;;;;;7.28;2.55;;;22.70;93.70;;;;;;5030515;28;20028;-75
2022/08/03 06:31:24;;;;;;;5.85;2.63;;;22.70;93.50;;;;;;5032368;28;20022;-73
2022/08/03 06:33:50;;;;;;;4.78;2.15;;;22.80;93.60;;;;;;5033332;28;20059;-73
2022/08/03 06:36:34;;;;;;;6.40;2.58;;;22.80;93.70;;;;;;5033309;28;20112;-72
2022/08/03 06:39:00;;;;;;;6.55;2.15;;;22.90;93.60;;;;;;5033487;28;20433;-77
2022/08/03 06:41:27;;;;;;;5.95;3.72;;;23.00;93.50;;;;;;5013911;28;20034;-78
2022/08/03 06:43:53;;;;;;;22.58;18.00;;;23.10;93.40;;;;;;5013897;28;20087;-74
2022/08/03 06:46:28;;;;;;;8.48;6.28;;;23.20;93.20;;;;;;5013598;28;20030;-72
2022/08/03 06:48:55;;;;;;;5.88;2.08;;;23.30;93.10;;;;;;5013470;28;20069;-74
2022/08/03 06:51:23;;;;;;;6.15;1.98;;;23.40;93.10;;;;;;5013806;28;20360;-75
2022/08/03 06:53:49;;;;;;;3.80;2.35;;;23.60;92.90;;;;;;5013432;28;20026;-77
2022/08/03 06:56:30;;;;;;;5.28;2.42;;;23.70;92.90;;;;;;5013231;28;20317;-77
2022/08/03 06:58:55;;;;;;;6.68;2.40;;;23.70;92.80;;;;;;5013902;28;20018;-76
2022/08/03 07:01:21;;;;;;;3.97;2.00;;;23.80;92.50;;;;;;5012303;28;20041;-77
2022/08/03 07:03:47;;;;;;;6.40;2.05;;;23.90;92.60;;;;;;5013422;28;20037;-75
2022/08/03 07:06:22;;;;;;;2.58;1.60;;;23.90;92.50;;;;;;5012339;28;20121;-76
2022/08/03 07:08:47;;;;;;;4.95;2.03;;;24.00;92.40;;;;;;5013306;28;20354;-75
2022/08/03 07:11:27;;;;;;;5.75;2.15;;;24.10;92.80;;;;;;5013391;28;20145;-77
2022/08/03 07:13:53;;;;;;;2.67;2.20;;;24.20;92.10;;;;;;5013994;28;20022;-78
2022/08/03 07:16:34;;;;;;;3.83;2.00;;;24.20;92.00;;;;;;5013571;28;20431;-75
2022/08/03 07:19:00;;;;;;;5.68;2.47;;;24.30;92.00;;;;;;5013300;28;20041;-80
2022/08/03 07:21:25;;;;;;;7.18;2.55;;;24.40;91.90;;;;;;5013446;28;20030;-80
2022/08/03 07:23:51;;;;;;;6.65;2.15;;;24.50;91.90;;;;;;5012375;28;20121;-77
2022/08/03 07:26:18;;;;;;;31.60;21.92;;;24.60;91.70;;;;;;5015890;28;20037;-96
2022/08/03 07:28:43;;;;;;;148.65;83.80;;;24.70;91.80;;;;;;5017892;28;20025;-91
2022/08/03 07:31:24;;;;;;;20.90;12.35;;;24.70;91.70;;;;;;5014404;28;20064;-81
2022/08/03 07:33:50;;;;;;;9.93;4.05;;;24.80;91.70;;;;;;5013338;28;20105;-79
2022/08/03 07:36:15;;;;;;;3.53;2.75;;;24.80;91.50;;;;;;5013686;28;20136;-79
2022/08/03 07:38:41;;;;;;;4.65;2.20;;;24.90;91.40;;;;;;5013410;28;20539;-76
2022/08/03 07:41:07;;;;;;;90.53;54.10;;;24.90;91.40;;;;;;5010872;28;20482;-77
2022/08/03 07:43:32;;;;;;;65.25;38.15;;;25.10;91.40;;;;;;5012997;28;20018;-80
2022/08/03 07:45:58;;;;;;;15.30;9.07;;;25.10;91.10;;;;;;5012632;28;20142;-80
2022/08/03 07:48:24;;;;;;;3.70;2.35;;;25.20;91.30;;;;;;5010434;28;20034;-75
2022/08/03 07:50:50;;;;;;;7.20;2.00;;;25.30;91.00;;;;;;5012668;28;20448;-76
2022/08/03 07:53:16;;;;;;;3.03;1.95;;;25.40;90.70;;;;;;5012901;28;20026;-79
2022/08/03 07:55:41;;;;;;;5.20;2.15;;;25.50;90.80;;;;;;5012794;28;20184;-74
2022/08/03 07:58:16;;;;;;;13.43;4.90;;;25.60;90.60;;;;;;5012797;28;20483;-79
2022/08/03 08:00:43;;;;;;;5.72;2.83;;;25.80;90.50;;;;;;5012990;28;20349;-79
2022/08/03 08:03:10;;;;;;;6.35;1.48;;;26.00;90.20;;;;;;5012787;28;20045;-76
2022/08/03 08:05:36;;;;;;;6.57;1.90;;;26.10;89.50;;;;;;5012904;28;20376;-78
2022/08/03 08:08:02;;;;;;;3.05;1.73;;;26.20;89.50;;;;;;5012669;28;20349;-77
2022/08/03 08:10:28;;;;;;;3.22;1.70;;;26.30;89.20;;;;;;5013164;28;20022;-81
2022/08/03 08:12:54;;;;;;;3.25;1.85;;;26.50;89.00;;;;;;5012780;28;20048;-79
2022/08/03 08:15:20;;;;;;;7.20;2.00;;;26.60;88.60;;;;;;5012688;28;20033;-78
2022/08/03 08:17:47;;;;;;;4.68;1.88;;;26.70;87.10;;;;;;5012083;28;20026;-82
2022/08/03 08:20:17;;;;;;;6.80;1.92;;;26.90;89.20;;;;;;5012390;28;20030;-79
2022/08/03 08:22:43;;;;;;;3.35;1.60;;;27.10;88.70;;;;;;5012974;28;20022;-81
2022/08/03 08:25:09;;;;;;;3.03;1.73;;;27.60;87.30;;;;;;5012382;28;20045;-80
2022/08/03 08:27:44;;;;;;;5.25;1.63;;;28.30;85.30;;;;;;5012249;28;20058;-79
2022/08/03 08:30:10;;;;;;;8.52;1.88;;;28.90;84.00;;;;;;5011531;28;20451;-84
2022/08/03 08:32:36;;;;;;;2.75;1.70;;;30.00;84.10;;;;;;5012142;28;20030;-84
2022/08/03 08:35:03;;;;;;;6.63;2.33;;;31.00;80.50;;;;;;5013804;28;20499;-83
2022/08/03 08:37:29;;;;;;;3.10;1.75;;;31.70;74.30;;;;;;5013436;28;20524;-86
2022/08/03 08:39:58;;;;;;;4.32;1.60;;;32.90;74.00;;;;;;5013944;28;20124;-83
2022/08/03 08:42:25;;;;;;;5.38;3.55;;;33.90;71.80;;;;;;5012912;28;20100;-87
2022/08/03 08:44:51;;;;;;;3.13;1.73;;;34.60;69.00;;;;;;5029687;28;20029;-86
2022/08/03 08:47:24;;;;;;;3.92;1.88;;;35.10;67.10;;;;;;5036082;28;20080;-87
2022/08/03 08:49:53;;;;;;;5.75;1.48;;;35.50;64.60;;;;;;5032821;28;20026;-84
2022/08/03 08:52:26;;;;;;;4.10;1.40;;;35.80;61.90;;;;;;5033336;28;20029;-87
2022/08/03 08:54:56;;;;;;;6.18;1.98;;;36.40;59.10;;;;;;5032169;28;20041;-82
2022/08/03 08:57:27;;;;;;;5.70;1.83;;;36.90;58.40;;;;;;5031420;28;20052;-81
2022/08/03 08:59:55;;;;;;;4.18;1.77;;;36.80;57.60;;;;;;5032131;28;20491;-82
2022/08/03 09:02:22;;;;;;;3.47;1.67;;;37.60;53.80;;;;;;5031341;28;20045;-82
2022/08/03 09:04:49;;;;;;;3.17;1.80;;;37.40;52.60;;;;;;5032269;28;20030;-80
2022/08/03 09:07:15;;;;;;;47.25;35.22;;;37.50;52.40;;;;;;5031032;28;20133;-78
2022/08/03 09:09:41;;;;;;;22.40;14.90;;;36.90;51.90;;;;;;5031985;28;20542;-79
2022/08/03 09:12:07;;;;;;;8.32;2.55;;;37.50;50.70;;;;;;5031828;28;20124;-77
2022/08/03 09:14:33;;;;;;;4.38;1.48;;;37.50;51.00;;;;;;5031523;28;20029;-82
2022/08/03 09:17:03;;;;;;;4.22;1.60;;;38.80;51.50;;;;;;5032086;28;20025;-82
2022/08/03 09:19:31;;;;;;;5.72;1.90;;;39.20;48.50;;;;;;5032021;28;20092;-79
2022/08/03 09:22:08;;;;;;;5.03;2.15;;;39.60;49.20;;;;;;5032288;28;20044;-81
2022/08/03 09:24:35;;;;;;;5.65;1.67;;;40.20;49.20;;;;;;5031838;28;20502;-78
2022/08/03 09:27:01;;;;;;;5.82;1.77;;;40.70;46.10;;;;;;5031720;28;20060;-87
2022/08/03 09:29:31;;;;;;;15.13;2.53;;;40.70;44.50;;;;;;5032460;28;20042;-84
2022/08/03 09:32:03;;;;;;;6.80;1.95;;;41.20;45.50;;;;;;5032318;28;20079;-85
2022/08/03 09:34:29;;;;;;;7.28;1.58;;;40.90;44.30;;;;;;5032566;28;20048;-79
2022/08/03 09:36:58;;;;;;;12.73;2.10;;;41.30;44.10;;;;;;5031134;28;20413;-77
2022/08/03 09:39:26;;;;;;;6.13;1.67;;;41.30;42.30;;;;;;5030962;28;20048;-78
2022/08/03 09:42:06;;;;;;;5.28;1.48;;;41.40;42.80;;;;;;5031432;28;20029;-84
2022/08/03 09:44:42;;;;;;;5.78;1.60;;;40.70;43.00;;;;;;5031499;28;20502;-80
2022/08/03 09:47:09;;;;;;;4.68;1.35;;;40.70;43.70;;;;;;5030920;28;20102;-79
2022/08/03 09:49:40;;;;;;;4.25;1.90;;;40.60;41.80;;;;;;5031833;28;20556;-77
2022/08/03 09:52:17;;;;;;;3.78;1.45;;;40.20;42.90;;;;;;5030658;28;20479;-77
2022/08/03 09:54:49;;;;;;;2.10;1.17;;;40.80;43.50;;;;;;5030175;28;20034;-75
2022/08/03 09:57:24;;;;;;;4.97;1.40;;;40.30;43.40;;;;;;5028894;28;20101;-76
2022/08/03 09:59:50;;;;;;;5.90;1.60;;;40.30;42.70;;;;;;5030010;28;20048;-77
2022/08/03 10:02:24;;;;;;;5.03;1.83;;;39.90;42.10;;;;;;5029015;28;20494;-76
2022/08/03 10:04:51;;;;;;;4.70;2.08;;;39.60;43.00;;;;;;5032661;28;20335;-76
2022/08/03 10:07:22;;;;;;;8.20;1.50;;;38.80;43.00;;;;;;5034317;28;20034;-77
2022/08/03 10:10:06;;;;;;;1.83;1.05;;;38.40;43.40;;;;;;5034559;28;20034;-74
2022/08/03 10:12:33;;;;;;;5.57;1.25;;;38.50;43.70;;;;;;5033110;28;20084;-71
2022/08/03 10:14:58;;;;;;;8.37;1.93;;;37.30;45.20;;;;;;5033844;28;20138;-75
2022/08/03 10:17:24;;;;;;;8.88;1.58;;;36.60;46.00;;;;;;5032912;28;20037;-74
2022/08/03 10:19:50;;;;;;;5.57;1.63;;;36.50;46.50;;;;;;5034089;28;20048;-74
2022/08/03 10:22:20;;;;;;;4.95;1.63;;;36.50;47.40;;;;;;5033729;28;20228;-73
2022/08/03 10:25:06;;;;;;;8.38;1.27;;;36.60;47.20;;;;;;5033973;28;20025;-77
2022/08/03 10:27:36;;;;;;;4.53;1.58;;;36.40;48.00;;;;;;5033733;28;20034;-75
2022/08/03 10:30:05;;;;;;;4.03;1.52;;;36.00;47.30;;;;;;5033673;28;20064;-75
2022/08/03 10:32:35;;;;;;;2.85;1.60;;;35.80;47.50;;;;;;5032523;28;20025;-75
2022/08/03 10:35:09;;;;;;;4.63;1.77;;;35.30;49.10;;;;;;5033571;28;20018;-73
2022/08/03 10:37:42;;;;;;;7.45;1.85;;;35.10;49.20;;;;;;5033898;28;20021;-75
2022/08/03 10:40:11;;;;;;;6.85;1.85;;;35.00;49.50;;;;;;5033309;28;20033;-75
2022/08/03 10:42:37;;;;;;;9.82;1.75;;;34.80;49.70;;;;;;5033643;28;20449;-78
2022/08/03 10:45:12;;;;;;;70.95;48.88;;;34.30;49.70;;;;;;5033530;28;20033;-74
2022/08/03 10:47:39;;;;;;;23.92;15.85;;;34.60;50.10;;;;;;5033233;28;20022;-72
2022/08/03 10:50:06;;;;;;;4.23;1.60;;;34.40;49.90;;;;;;5032275;28;20034;-73
2022/08/03 10:52:32;;;;;;;3.30;1.52;;;34.20;50.20;;;;;;5032441;28;20553;-74
2022/08/03 10:57:46;;;;;;;3.72;1.60;;;33.90;51.10;;;;;;5032989;28;20072;-75
2022/08/03 11:00:17;;;;;;;3.92;1.92;;;34.10;50.80;;;;;;5033661;28;20124;-81
2022/08/03 11:03:09;;;;;;;5.75;1.98;;;34.00;51.00;;;;;;5033385;28;20049;-79
2022/08/03 11:05:37;;;;;;;4.68;2.00;;;34.00;51.90;;;;;;5033568;28;20041;-74
2022/08/03 11:08:22;;;;;;;3.33;1.65;;;34.10;51.80;;;;;;5033052;28;20250;-75
2022/08/03 11:10:50;;;;;;;5.43;1.85;;;34.20;51.00;;;;;;5032499;28;20025;-77
2022/08/03 11:13:20;;;;;;;4.13;1.80;;;34.10;51.20;;;;;;5033783;28;20471;-75
2022/08/03 11:15:47;;;;;;;3.55;2.30;;;33.90;51.00;;;;;;5033392;28;20366;-78
2022/08/03 11:18:13;;;;;;;;;;;33.90;51.50;;;;;;5032851;28;20025;-75
2022/08/03 11:20:47;;;;;;;18.38;3.60;;;33.70;51.00;;;;;;5033131;28;19940;-74
2022/08/03 11:23:14;;;;;;;4.82;2.45;;;33.70;51.40;;;;;;5032771;28;20026;-75
2022/08/03 11:26:24;;;;;;;3.42;2.13;;;33.60;51.50;;;;;;5033992;28;20020;-76
2022/08/03 11:28:50;;;;;;;3.25;1.52;;;33.50;51.70;;;;;;5031606;28;20184;-76
2022/08/03 11:31:41;;;;;;;7.05;1.52;;;33.30;51.60;;;;;;5014506;28;20348;-76
2022/08/03 11:34:09;;;;;;;3.80;2.00;;;33.50;52.50;;;;;;5031970;28;20121;-74
2022/08/03 11:37:12;;;;;;;5.75;1.90;;;33.60;51.90;;;;;;5032861;28;20463;-86
2022/08/03 11:39:46;;;;;;;5.47;2.00;;;33.40;51.50;;;;;;5035695;28;20139;-87
2022/08/03 11:42:25;;;;;;;3.10;1.90;;;33.40;51.80;;;;;;5032024;28;20116;-76
2022/08/03 11:44:55;;;;;;;6.93;1.65;;;33.50;51.90;;;;;;5031584;28;20105;-75
2022/08/03 11:47:23;;;;;;;6.88;1.75;;;33.50;52.00;;;;;;5032570;28;20261;-75
2022/08/03 11:49:49;;;;;;;;;;;33.40;51.50;;;;;;5033146;28;20022;-75
2022/08/03 11:52:16;;;;;;;3.65;1.80;;;33.60;52.00;;;;;;5032292;28;19909;-76
2022/08/03 11:54:42;;;;;;;3.00;1.43;;;33.60;51.70;;;;;;5032282;28;20065;-75
2022/08/03 11:57:09;;;;;;;2.13;1.20;;;33.40;51.40;;;;;;5032158;28;20141;-76
2022/08/03 11:59:38;;;;;;;3.13;1.60;;;33.50;51.60;;;;;;5032025;28;20045;-75
2022/08/03 12:02:11;;;;;;;2.53;1.40;;;33.60;51.40;;;;;;5032779;28;20040;-74
2022/08/03 12:04:49;;;;;;;6.32;1.63;;;33.50;51.50;;;;;;5033309;28;20506;-75
2022/08/03 12:07:16;;;;;;;3.65;1.55;;;33.50;51.30;;;;;;5032417;28;20379;-77
2022/08/03 12:09:42;;;;;;;10.82;1.85;;;33.50;51.20;;;;;;5031365;28;20032;-76
2022/08/03 12:12:08;;;;;;;4.43;2.25;;;33.40;51.20;;;;;;5031961;28;20115;-76
2022/08/03 12:14:34;;;;;;;4.93;1.70;;;33.40;51.70;;;;;;5030922;28;20113;-77
2022/08/03 12:17:00;;;;;;;3.05;1.48;;;33.40;51.30;;;;;;5031314;28;20079;-76
2022/08/03 12:19:25;;;;;;;4.32;1.33;;;33.60;51.70;;;;;;5032555;28;20056;-76
2022/08/03 12:21:51;;;;;;;5.35;1.88;;;33.50;51.40;;;;;;5032113;28;20029;-77
2022/08/03 12:24:17;;;;;;;7.10;1.80;;;33.40;52.30;;;;;;5031208;28;20041;-77
2022/08/03 12:26:48;;;;;;;5.93;1.73;;;33.40;52.10;;;;;;5031557;28;20102;-78
2022/08/03 12:29:21;;;;;;;4.35;1.95;;;33.40;51.80;;;;;;5030634;28;20348;-75
2022/08/03 12:31:47;;;;;;;4.25;2.30;;;33.30;51.10;;;;;;5031118;28;20037;-77
2022/08/03 12:34:14;;;;;;;5.07;1.60;;;33.30;51.40;;;;;;5032082;28;20030;-77
2022/08/03 12:36:55;;;;;;;2.85;1.45;;;33.20;50.90;;;;;;5032120;28;20306;-76
2022/08/03 12:39:26;;;;;;;2.55;1.42;;;33.20;51.10;;;;;;5031684;28;20451;-77
2022/08/03 12:41:54;;;;;;;5.10;1.75;;;33.10;51.80;;;;;;5031879;28;20125;-77
2022/08/03 12:44:29;;;;;;;4.13;2.58;;;33.00;51.30;;;;;;5030662;28;20025;-73
2022/08/03 12:46:57;;;;;;;3.20;1.50;;;33.00;52.20;;;;;;5031628;28;20030;-75
2022/08/03 12:49:24;;;;;;;2.38;1.65;;;32.90;51.40;;;;;;5030150;28;20121;-75
2022/08/03 12:51:49;;;;;;;2.92;1.73;;;32.80;51.50;;;;;;5031164;28;20045;-74
2022/08/03 12:54:23;;;;;;;4.97;1.38;;;32.80;51.70;;;;;;5031152;28;20041;-74
2022/08/03 12:57:02;;;;;;;4.70;1.88;;;32.70;51.90;;;;;;5029892;28;20034;-73
2022/08/03 12:59:33;;;;;;;1.48;1.23;;;32.50;52.50;;;;;;5031163;28;20042;-75
2022/08/03 13:01:59;;;;;;;5.00;1.40;;;32.50;52.80;;;;;;5030290;28;20164;-75
2022/08/03 13:04:30;;;;;;;5.18;1.95;;;32.60;53.10;;;;;;5029560;28;20170;-75
2022/08/03 13:07:01;;;;;;;4.22;1.45;;;32.60;53.00;;;;;;5030825;28;20033;-75
2022/08/03 13:09:28;;;;;;;6.40;1.52;;;32.60;52.90;;;;;;5013479;28;20320;-74